createdAt,value
2023-04-18T00:02:39.141Z,102302.50
2023-04-18T00:05:23.185Z,102306.47
2023-04-18T00:08:06.787Z,102305.00
2023-04-18T00:10:50.470Z,102307.34
2023-04-18T00:13:34.126Z,102316.75
2023-04-18T00:16:17.737Z,102316.81
2023-04-18T00:19:05.393Z,102316.44
2023-04-18T00:21:49.580Z,102313.69
2023-04-18T00:24:33.111Z,102310.47
2023-04-18T00:27:18.975Z,102313.53
2023-04-18T00:30:02.514Z,102319.59
2023-04-18T00:32:46.055Z,102314.34
2023-04-18T00:35:29.791Z,102315.78
2023-04-18T00:38:13.358Z,102315.75
2023-04-18T00:40:57.538Z,102316.94
2023-04-18T00:43:41.103Z,102310.00
2023-04-18T00:46:24.726Z,102318.53
2023-04-18T00:49:08.641Z,102312.41
2023-04-18T00:51:53.570Z,102322.59
2023-04-18T00:54:37.610Z,102316.94
2023-04-18T00:57:22.521Z,102315.78
2023-04-18T01:00:10.578Z,102308.41
2023-04-18T01:02:56.066Z,102317.00
2023-04-18T01:05:39.878Z,102313.38
2023-04-18T01:08:24.592Z,102308.81
2023-04-18T01:11:08.184Z,102307.09
2023-04-18T01:14:06.281Z,102307.03
2023-04-18T01:16:52.973Z,102313.47
2023-04-18T01:19:38.089Z,102317.59
2023-04-18T01:22:24.058Z,102309.50
2023-04-18T01:25:09.433Z,102331.31
2023-04-18T01:27:54.432Z,102326.28
2023-04-18T01:30:38.129Z,102324.19
2023-04-18T01:33:21.851Z,102322.72
2023-04-18T01:36:05.513Z,102314.75
2023-04-18T01:38:49.053Z,102314.00
2023-04-18T01:41:33.107Z,102304.91
2023-04-18T01:44:16.838Z,102301.66
2023-04-18T01:47:02.974Z,102302.81
2023-04-18T01:49:49.759Z,102302.69
2023-04-18T01:52:33.521Z,102315.78
2023-04-18T01:55:17.243Z,102303.63
2023-04-18T01:58:00.846Z,102304.56
2023-04-18T02:00:44.553Z,102300.38
2023-04-18T02:03:28.349Z,102307.19
2023-04-18T02:06:11.978Z,102298.88
2023-04-18T02:08:55.616Z,102302.47
2023-04-18T02:11:41.901Z,102306.75
2023-04-18T02:14:27.270Z,102293.34
2023-04-18T02:17:10.863Z,102299.78
2023-04-18T02:19:54.525Z,102303.81
2023-04-18T02:22:39.629Z,102297.84
2023-04-18T02:25:24.338Z,102302.03
2023-04-18T02:28:07.986Z,102302.66
2023-04-18T02:30:51.621Z,102314.13
2023-04-18T02:33:35.230Z,102305.22
2023-04-18T02:36:18.812Z,102305.81
2023-04-18T02:39:02.395Z,102305.06
2023-04-18T02:41:46.013Z,102302.19
2023-04-18T02:44:29.728Z,102305.50
2023-04-18T02:47:13.263Z,102308.41
2023-04-18T02:49:59.413Z,102313.16
2023-04-18T02:52:44.392Z,102307.25
2023-04-18T02:55:28.299Z,102312.53
2023-04-18T02:58:14.877Z,102313.44
2023-04-18T03:01:07.566Z,102310.84
2023-04-18T03:04:08.127Z,102308.44
2023-04-18T03:07:04.802Z,102305.94
2023-04-18T03:09:52.654Z,102305.31
2023-04-18T03:12:41.392Z,102309.44
2023-04-18T03:15:26.923Z,102309.28
2023-04-18T03:18:12.609Z,102304.03
2023-04-18T03:20:57.982Z,102302.84
2023-04-18T03:23:42.149Z,102309.34
2023-04-18T03:26:26.022Z,102310.09
2023-04-18T03:29:10.994Z,102315.84
2023-04-18T03:31:56.001Z,102316.59
2023-04-18T03:34:39.884Z,102305.31
2023-04-18T03:37:24.949Z,102312.41
2023-04-18T03:40:11.755Z,102316.97
2023-04-18T03:42:57.961Z,102321.88
2023-04-18T03:45:41.601Z,102325.28
2023-04-18T03:48:25.380Z,102323.09
2023-04-18T03:51:09.539Z,102323.13
2023-04-18T03:53:53.973Z,102327.00
2023-04-18T03:56:37.809Z,102326.75
2023-04-18T03:59:21.710Z,102323.25
2023-04-18T04:02:07.299Z,102327.78
2023-04-18T04:04:51.122Z,102328.13
2023-04-18T04:07:35.212Z,102330.81
2023-04-18T04:10:18.918Z,102338.63
2023-04-18T04:13:04.179Z,102338.53
2023-04-18T04:15:50.763Z,102333.69
2023-04-18T04:18:34.697Z,102334.81
2023-04-18T04:21:21.213Z,102345.84
2023-04-18T04:24:08.395Z,102343.72
2023-04-18T04:26:59.897Z,102340.38
2023-04-18T04:29:43.880Z,102346.03
2023-04-18T04:32:29.218Z,102344.72
2023-04-18T04:35:12.877Z,102343.59
2023-04-18T04:37:56.639Z,102349.88
2023-04-18T04:40:50.029Z,102351.69
2023-04-18T04:43:35.381Z,102348.81
2023-04-18T04:46:20.332Z,102351.22
2023-04-18T04:49:06.675Z,102350.00
2023-04-18T04:51:50.292Z,102359.75
2023-04-18T04:54:33.870Z,102356.44
2023-04-18T04:57:18.044Z,102355.13
2023-04-18T05:00:01.831Z,102361.31
2023-04-18T05:02:46.577Z,102361.06
2023-04-18T05:05:30.791Z,102359.09
2023-04-18T05:08:14.643Z,102358.50
2023-04-18T05:10:58.318Z,102361.19
2023-04-18T05:13:42.015Z,102364.75
2023-04-18T05:16:26.408Z,102362.41
2023-04-18T05:19:10.033Z,102365.97
2023-04-18T05:21:53.670Z,102379.44
2023-04-18T05:24:37.332Z,102359.25
2023-04-18T05:27:21.765Z,102364.81
2023-04-18T05:30:06.513Z,102369.53
2023-04-18T05:32:50.305Z,102367.13
2023-04-18T05:35:34.145Z,102373.47
2023-04-18T05:38:17.831Z,102372.53
2023-04-18T05:41:03.208Z,102369.47
2023-04-18T05:43:54.513Z,102372.03
2023-04-18T05:46:51.475Z,102374.88
2023-04-18T05:49:35.164Z,102368.69
2023-04-18T05:52:18.802Z,102371.41
2023-04-18T05:55:02.324Z,102366.75
2023-04-18T05:57:46.078Z,102371.06
2023-04-18T06:00:29.757Z,102364.97
2023-04-18T06:03:13.564Z,102368.44
2023-04-18T06:05:57.752Z,102372.38
2023-04-18T06:08:41.713Z,102369.25
2023-04-18T06:11:25.339Z,102367.16
2023-04-18T06:14:09.043Z,102367.53
2023-04-18T06:16:52.680Z,102381.47
2023-04-18T06:19:36.440Z,102372.31
2023-04-18T06:22:20.109Z,102380.66
2023-04-18T06:25:04.133Z,102380.97
2023-04-18T06:27:47.698Z,102376.00
2023-04-18T06:30:31.411Z,102377.94
2023-04-18T06:33:15.126Z,102378.72
2023-04-18T06:35:59.458Z,102381.72
2023-04-18T06:38:43.355Z,102382.94
2023-04-18T06:41:26.912Z,102381.28
2023-04-18T06:44:10.649Z,102389.19
2023-04-18T06:46:55.103Z,102390.53
2023-04-18T06:49:38.686Z,102385.19
2023-04-18T06:52:22.241Z,102381.75
2023-04-18T06:55:07.566Z,102398.06
2023-04-18T06:57:51.159Z,102386.50
2023-04-18T07:00:34.773Z,102390.03
2023-04-18T07:03:18.600Z,102389.84
2023-04-18T07:06:03.224Z,102388.91
2023-04-18T07:08:47.003Z,102385.94
2023-04-18T07:11:33.446Z,102400.03
2023-04-18T07:14:17.235Z,102394.16
2023-04-18T07:17:01.781Z,102391.88
2023-04-18T07:19:45.585Z,102392.31
2023-04-18T07:22:29.236Z,102390.09
2023-04-18T07:25:15.849Z,102396.09
2023-04-18T07:27:59.897Z,102404.94
2023-04-18T07:30:43.548Z,102401.06
2023-04-18T07:33:27.106Z,102399.88
2023-04-18T07:36:11.080Z,102398.81
2023-04-18T07:38:54.671Z,102400.47
2023-04-18T07:41:38.213Z,102405.88
2023-04-18T07:44:22.141Z,102398.28
2023-04-18T07:47:11.516Z,102397.09
2023-04-18T07:49:55.561Z,102393.31
2023-04-18T07:52:39.587Z,102400.91
2023-04-18T07:55:24.471Z,102403.44
2023-04-18T07:58:07.993Z,102402.53
2023-04-18T08:00:54.043Z,102394.94
2023-04-18T08:03:37.670Z,102403.13
2023-04-18T08:06:21.889Z,102396.63
2023-04-18T08:09:06.165Z,102388.19
2023-04-18T08:11:49.749Z,102394.47
2023-04-18T08:14:33.349Z,102394.47
2023-04-18T08:17:16.993Z,102395.59
2023-04-18T08:20:05.080Z,102404.28
2023-04-18T08:23:05.068Z,102397.75
2023-04-18T08:25:50.278Z,102399.38
2023-04-18T08:28:33.833Z,102405.47
2023-04-18T08:31:17.426Z,102408.88
2023-04-18T08:34:02.607Z,102403.44
2023-04-18T08:36:48.516Z,102399.91
2023-04-18T08:39:32.048Z,102398.81
2023-04-18T08:42:19.687Z,102398.31
2023-04-18T08:45:04.351Z,102394.22
2023-04-18T08:47:48.143Z,102386.34
2023-04-18T09:09:47.334Z,102386.63
2023-04-18T09:12:32.911Z,102389.78
2023-04-18T09:15:23.815Z,102402.88
2023-04-18T09:18:11.144Z,102396.16
2023-04-18T09:21:16.237Z,102389.81
2023-04-18T09:24:24.299Z,102396.78
2023-04-18T09:27:15.834Z,102403.16
2023-04-18T09:30:00.981Z,102392.81
2023-04-18T09:32:57.009Z,102398.13
2023-04-18T09:35:47.262Z,102393.09
2023-04-18T09:38:41.854Z,102390.78
2023-04-18T09:41:25.882Z,102397.00
2023-04-18T09:44:14.930Z,102394.63
2023-04-18T09:47:00.040Z,102394.66
2023-04-18T09:49:43.747Z,102395.41
2023-04-18T09:52:36.074Z,102394.06
2023-04-18T09:55:20.176Z,102392.09
2023-04-18T09:58:04.920Z,102388.75
2023-04-18T10:00:54.939Z,102383.38
2023-04-18T10:03:47.765Z,102384.44
2023-04-18T10:06:34.996Z,102380.94
2023-04-18T10:09:19.783Z,102375.97
2023-04-18T10:12:03.845Z,102379.75
2023-04-18T10:14:47.954Z,102370.72
2023-04-18T10:18:02.670Z,102381.50
2023-04-18T10:20:51.893Z,102379.03
2023-04-18T10:23:39.350Z,102392.56
2023-04-18T10:26:50.528Z,102385.75
2023-04-18T10:29:52.978Z,102389.66
2023-04-18T10:32:36.612Z,102379.03
2023-04-18T10:35:21.687Z,102383.13
2023-04-18T10:38:05.334Z,102383.00
2023-04-18T10:40:48.997Z,102384.31
2023-04-18T10:44:10.256Z,102374.41
2023-04-18T10:46:53.755Z,102370.59
2023-04-18T10:49:37.337Z,102378.88
2023-04-18T10:52:23.507Z,102383.06
2023-04-18T10:55:19.024Z,102375.44
2023-04-18T10:58:03.641Z,102379.22
2023-04-18T11:00:51.679Z,102374.03
2023-04-18T11:03:36.385Z,102373.16
2023-04-18T11:06:28.466Z,102373.00
2023-04-18T11:09:14.113Z,102375.81
2023-04-18T11:12:09.592Z,102373.78
2023-04-18T11:14:53.256Z,102381.06
2023-04-18T11:17:40.358Z,102368.84
2023-04-18T11:20:24.057Z,102368.06
2023-04-18T11:23:18.366Z,102364.47
2023-04-18T11:26:01.998Z,102364.06
2023-04-18T11:28:54.830Z,102355.63
2023-04-18T11:31:38.533Z,102360.47
2023-04-18T11:34:28.215Z,102357.50
2023-04-18T11:37:15.661Z,102353.72
2023-04-18T11:39:59.340Z,102349.59
2023-04-18T11:42:43.188Z,102352.53
2023-04-18T11:45:27.541Z,102350.03
2023-04-18T11:48:11.572Z,102360.31
2023-04-18T11:50:55.116Z,102351.38
2023-04-18T11:53:39.706Z,102361.28
2023-04-18T11:56:23.302Z,102352.13
2023-04-18T11:59:10.194Z,102358.53
2023-04-18T12:02:15.458Z,102358.00
2023-04-18T12:05:00.825Z,102362.38
2023-04-18T12:07:45.996Z,102352.56
2023-04-18T12:10:30.029Z,102355.81
2023-04-18T12:13:14.089Z,102369.03
2023-04-18T12:15:58.260Z,102351.84
2023-04-18T12:18:42.067Z,102359.28
2023-04-18T12:21:29.480Z,102361.28
2023-04-18T12:24:16.245Z,102358.38
2023-04-18T12:27:00.215Z,102361.09
2023-04-18T12:29:43.840Z,102364.09
2023-04-18T12:32:27.484Z,102355.81
2023-04-18T12:35:14.440Z,102351.34
2023-04-18T12:38:01.372Z,102352.69
2023-04-18T12:40:45.167Z,102349.09
2023-04-18T12:43:29.042Z,102351.06
2023-04-18T12:46:12.669Z,102346.81
2023-04-18T12:48:57.391Z,102346.69
2023-04-18T12:51:40.943Z,102347.78
2023-04-18T12:54:27.336Z,102343.44
2023-04-18T12:57:11.403Z,102340.81
2023-04-18T12:59:55.110Z,102342.91
2023-04-18T13:02:41.747Z,102329.38
2023-04-18T13:05:32.608Z,102336.78
2023-04-18T13:08:18.135Z,102326.94
2023-04-18T13:11:01.851Z,102318.22
2023-04-18T13:13:45.665Z,102330.31
2023-04-18T13:16:31.840Z,102322.41
2023-04-18T13:19:15.689Z,102325.44
2023-04-18T13:21:59.443Z,102326.81
2023-04-18T13:24:43.011Z,102318.13
2023-04-18T13:27:26.669Z,102311.41
2023-04-18T13:30:11.687Z,102311.47
2023-04-18T13:32:55.515Z,102314.41
2023-04-18T13:35:39.138Z,102313.94
2023-04-18T13:38:22.864Z,102311.22
2023-04-18T13:41:12.771Z,102310.09
2023-04-18T13:43:57.184Z,102312.25
2023-04-18T13:46:41.068Z,102308.19
2023-04-18T13:49:24.862Z,102305.31
2023-04-18T13:52:08.558Z,102300.78
2023-04-18T13:54:52.249Z,102301.69
2023-04-18T13:57:37.453Z,102300.50
2023-04-18T14:00:21.244Z,102306.41
2023-04-18T14:03:05.183Z,102304.06
2023-04-18T14:05:48.904Z,102306.28
2023-04-18T14:08:32.455Z,102300.38
2023-04-18T14:11:16.339Z,102296.59
2023-04-18T14:13:59.942Z,102296.88
2023-04-18T14:16:43.608Z,102297.81
2023-04-18T14:19:27.760Z,102292.63
2023-04-18T14:22:12.178Z,102293.09
2023-04-18T14:24:56.286Z,102289.59
2023-04-18T14:27:40.325Z,102290.00
2023-04-18T14:30:25.307Z,102290.16
2023-04-18T14:33:10.284Z,102289.50
2023-04-18T14:35:53.865Z,102282.63
2023-04-18T14:38:37.387Z,102281.56
2023-04-18T14:41:21.216Z,102281.59
2023-04-18T14:44:04.938Z,102274.38
2023-04-18T14:46:48.644Z,102277.41
2023-04-18T14:49:33.516Z,102274.88
2023-04-18T14:52:17.105Z,102277.06
2023-04-18T14:55:01.847Z,102275.69
2023-04-18T14:57:46.134Z,102275.75
2023-04-18T15:00:31.199Z,102275.69
2023-04-18T15:03:16.487Z,102270.31
2023-04-18T15:06:00.666Z,102272.06
2023-04-18T15:08:47.311Z,102265.72
2023-04-18T15:11:30.829Z,102263.91
2023-04-18T15:14:14.873Z,102254.53
2023-04-18T15:16:58.897Z,102262.91
2023-04-18T15:19:42.563Z,102269.50
2023-04-18T15:22:26.194Z,102261.34
2023-04-18T15:25:09.986Z,102264.09
2023-04-18T15:27:53.607Z,102261.09
2023-04-18T15:30:37.207Z,102257.78
2023-04-18T15:33:21.241Z,102250.97
2023-04-18T15:36:05.296Z,102263.06
2023-04-18T15:38:48.927Z,102251.56
2023-04-18T15:41:37.125Z,102264.84
2023-04-18T15:44:22.220Z,102261.75
2023-04-18T15:47:06.081Z,102253.53
2023-04-18T15:49:49.700Z,102263.34
2023-04-18T15:52:33.349Z,102264.09
2023-04-18T15:55:16.946Z,102263.16
2023-04-18T15:58:00.487Z,102264.41
2023-04-18T16:00:44.497Z,102264.91
2023-04-18T16:03:28.131Z,102254.00
2023-04-18T16:06:14.839Z,102258.00
2023-04-18T16:08:58.671Z,102265.81
2023-04-18T16:11:42.255Z,102261.84
2023-04-18T16:14:25.810Z,102255.94
2023-04-18T16:17:09.398Z,102269.75
2023-04-18T16:19:54.332Z,102267.28
2023-04-18T16:22:38.048Z,102265.72
2023-04-18T16:25:21.608Z,102261.34
2023-04-18T16:28:05.270Z,102260.59
2023-04-18T16:30:49.123Z,102270.31
2023-04-18T16:33:33.123Z,102256.31
2023-04-18T16:36:16.955Z,102266.66
2023-04-18T16:39:00.552Z,102265.53
2023-04-18T16:41:44.297Z,102258.00
2023-04-18T16:44:27.841Z,102261.22
2023-04-18T16:47:11.413Z,102260.16
2023-04-18T16:49:55.689Z,102260.66
2023-04-18T16:52:39.374Z,102263.53
2023-04-18T16:55:23.419Z,102262.72
2023-04-18T16:58:07.184Z,102262.16
2023-04-18T17:00:51.225Z,102275.97
2023-04-18T17:03:35.328Z,102276.97
2023-04-18T17:06:19.697Z,102267.66
2023-04-18T17:09:06.476Z,102274.34
2023-04-18T17:11:50.820Z,102271.72
2023-04-18T17:14:35.036Z,102278.03
2023-04-18T17:17:18.563Z,102275.47
2023-04-18T17:20:02.278Z,102272.13
2023-04-18T17:22:48.417Z,102281.78
2023-04-18T17:25:32.097Z,102275.09
2023-04-18T17:28:16.517Z,102282.69
2023-04-18T17:31:01.996Z,102283.00
2023-04-18T17:33:46.046Z,102280.06
2023-04-18T17:36:29.870Z,102284.28
2023-04-18T17:39:16.461Z,102284.66
2023-04-18T17:42:01.180Z,102285.06
2023-04-18T17:44:45.278Z,102294.75
2023-04-18T17:47:29.048Z,102291.81
2023-04-18T17:50:13.064Z,102295.13
2023-04-18T17:52:57.707Z,102294.84
2023-04-18T17:55:41.490Z,102298.59
2023-04-18T17:58:26.748Z,102303.78
2023-04-18T18:01:17.391Z,102300.53
2023-04-18T18:04:01.320Z,102312.06
2023-04-18T18:06:56.803Z,102310.28
2023-04-18T18:09:43.577Z,102314.22
2023-04-18T18:12:27.235Z,102317.38
2023-04-18T18:15:11.367Z,102324.91
2023-04-18T18:17:55.683Z,102334.25
2023-04-18T18:20:43.374Z,102322.28
2023-04-18T18:23:27.409Z,102317.25
2023-04-18T18:26:12.542Z,102329.28
2023-04-18T18:28:56.109Z,102331.59
2023-04-18T18:31:39.790Z,102335.28
2023-04-18T18:34:23.429Z,102337.19
2023-04-18T18:37:07.511Z,102339.28
2023-04-18T18:39:51.125Z,102334.81
2023-04-18T18:42:34.726Z,102335.91
2023-04-18T18:45:19.860Z,102341.72
2023-04-18T18:48:04.175Z,102340.00
2023-04-18T18:50:48.167Z,102344.25
2023-04-18T18:53:31.745Z,102346.16
2023-04-18T18:56:15.541Z,102347.53
2023-04-18T18:58:59.114Z,102349.41
2023-04-18T19:01:42.740Z,102343.88
2023-04-18T19:04:26.697Z,102354.16
2023-04-18T19:07:10.445Z,102359.03
2023-04-18T19:09:55.399Z,102357.38
2023-04-18T19:12:38.998Z,102359.66
2023-04-18T19:15:23.017Z,102360.50
2023-04-18T19:18:06.720Z,102362.22
2023-04-18T19:20:51.180Z,102368.97
2023-04-18T19:23:34.724Z,102361.28
2023-04-18T19:26:18.752Z,102361.41
2023-04-18T19:29:02.376Z,102362.19
2023-04-18T19:31:46.080Z,102366.91
2023-04-18T19:34:29.710Z,102366.22
2023-04-18T19:37:13.276Z,102371.03
2023-04-18T19:39:56.829Z,102361.16
2023-04-18T19:42:41.003Z,102368.53
2023-04-18T19:45:24.823Z,102369.16
2023-04-18T19:48:08.381Z,102360.22
2023-04-18T19:50:51.963Z,102366.97
2023-04-18T19:53:35.648Z,102371.00
2023-04-18T19:56:19.199Z,102367.84
2023-04-18T19:59:04.911Z,102369.09
2023-04-18T20:01:48.511Z,102366.97
2023-04-18T20:04:34.466Z,102364.56
2023-04-18T20:07:18.085Z,102364.88
2023-04-18T20:10:02.253Z,102369.78
2023-04-18T20:12:46.279Z,102366.53
2023-04-18T20:15:30.899Z,102370.06
2023-04-18T20:18:14.503Z,102362.69
2023-04-18T20:20:58.698Z,102362.16
2023-04-18T20:23:42.886Z,102352.91
2023-04-18T20:26:26.544Z,102356.97
2023-04-18T20:29:12.667Z,102367.56
2023-04-18T20:31:56.497Z,102351.81
2023-04-18T20:34:40.104Z,102356.69
2023-04-18T20:37:24.656Z,102357.78
2023-04-18T20:40:09.721Z,102367.31
2023-04-18T20:42:57.805Z,102362.41
2023-04-18T20:45:43.021Z,102354.53
2023-04-18T20:48:26.672Z,102362.94
2023-04-18T20:51:10.322Z,102360.19
2023-04-18T20:53:53.874Z,102364.81
2023-04-18T20:56:37.571Z,102359.41
2023-04-18T20:59:21.075Z,102358.00
2023-04-18T21:02:04.830Z,102352.31
2023-04-18T21:04:48.957Z,102354.47
2023-04-18T21:07:32.588Z,102361.88
2023-04-18T21:10:16.113Z,102365.59
2023-04-18T21:12:59.610Z,102360.50
2023-04-18T21:15:43.250Z,102362.34
2023-04-18T21:18:26.863Z,102360.41
2023-04-18T21:21:10.435Z,102371.31
2023-04-18T21:23:53.968Z,102369.63
2023-04-18T21:26:37.517Z,102357.47
2023-04-18T21:29:21.928Z,102366.91
2023-04-18T21:32:05.546Z,102365.25
2023-04-18T21:34:49.041Z,102369.06
2023-04-18T21:37:32.770Z,102370.09
2023-04-18T21:40:16.367Z,102377.31
2023-04-18T21:42:59.928Z,102366.75
2023-04-18T21:45:43.519Z,102365.81
2023-04-18T21:48:27.082Z,102364.06
2023-04-18T21:51:13.222Z,102364.50
2023-04-18T21:53:56.697Z,102363.88
2023-04-18T21:56:40.469Z,102369.69
2023-04-18T21:59:24.015Z,102367.34
2023-04-18T22:02:07.693Z,102368.00
2023-04-18T22:04:51.251Z,102369.94
2023-04-18T22:07:43.243Z,102355.13
2023-04-18T22:10:35.361Z,102359.81
2023-04-18T22:13:19.138Z,102358.84
2023-04-18T22:16:03.894Z,102361.06
2023-04-18T22:18:48.969Z,102353.94
2023-04-18T22:21:32.668Z,102344.53
2023-04-18T22:24:16.383Z,102343.50
2023-04-18T22:27:01.330Z,102342.59
2023-04-18T22:29:44.851Z,102345.34
2023-04-18T22:32:28.373Z,102342.47
2023-04-18T22:35:11.928Z,102334.88
2023-04-18T22:37:55.885Z,102332.31
2023-04-18T22:40:39.382Z,102339.16
2023-04-18T22:59:44.350Z,102320.28
2023-04-18T23:02:28.175Z,102310.19
2023-04-18T23:05:11.868Z,102312.78
2023-04-18T23:07:56.935Z,102311.16
2023-04-18T23:10:41.936Z,102320.63
2023-04-18T23:21:20.425Z,102309.97
2023-04-18T23:24:04.005Z,102305.34
2023-04-18T23:26:47.540Z,102304.94
2023-04-18T23:29:31.083Z,102307.88
2023-04-18T23:32:14.881Z,102308.81
2023-04-18T23:34:59.724Z,102311.50
2023-04-18T23:37:43.448Z,102297.03
2023-04-18T23:40:26.946Z,102301.59
2023-04-18T23:48:17.522Z,102286.25
2023-04-18T23:51:01.038Z,102297.13
2023-04-18T23:53:44.561Z,102298.72
2023-04-18T23:56:29.809Z,102289.78
2023-04-18T23:59:13.269Z,102283.09
